sensor_id;sensor_type;location;lat;lon;timestamp;pressure;altitude;pressure_sealevel;temperature;humidity
7180;BME280;3631;42.152;24.756;2023-02-14T00:02:06;100791.47;;;4.11;65.16
7180;BME280;3631;42.152;24.756;2023-02-14T00:04:33;100813.25;;;4.33;64.86
7180;BME280;3631;42.152;24.756;2023-02-14T00:07:02;100807.25;;;4.32;64.72
7180;BME280;3631;42.152;24.756;2023-02-14T00:09:29;100809.03;;;4.36;64.23
7180;BME280;3631;42.152;24.756;2023-02-14T00:11:58;100809.94;;;4.38;64.10
7180;BME280;3631;42.152;24.756;2023-02-14T00:14:24;100805.63;;;4.37;63.85
7180;BME280;3631;42.152;24.756;2023-02-14T00:17:09;100808.25;;;4.39;63.96
7180;BME280;3631;42.152;24.756;2023-02-14T00:19:36;100799.47;;;4.28;63.59
7180;BME280;3631;42.152;24.756;2023-02-14T00:22:02;100810.72;;;4.34;63.51
7180;BME280;3631;42.152;24.756;2023-02-14T00:24:30;100826.06;;;4.31;63.60
7180;BME280;3631;42.152;24.756;2023-02-14T00:26:58;100817.72;;;4.43;62.64
7180;BME280;3631;42.152;24.756;2023-02-14T00:29:29;100828.03;;;4.45;62.77
7180;BME280;3631;42.152;24.756;2023-02-14T00:31:56;100822.03;;;4.46;62.36
7180;BME280;3631;42.152;24.756;2023-02-14T00:34:24;100814.47;;;4.55;62.29
7180;BME280;3631;42.152;24.756;2023-02-14T00:36:51;100818.72;;;4.51;62.25
7180;BME280;3631;42.152;24.756;2023-02-14T00:39:18;100811.97;;;4.58;61.79
7180;BME280;3631;42.152;24.756;2023-02-14T00:41:45;100802.44;;;4.51;61.62
7180;BME280;3631;42.152;24.756;2023-02-14T00:44:14;100803.22;;;4.47;61.68
7180;BME280;3631;42.152;24.756;2023-02-14T00:46:41;100781.53;;;4.32;61.22
7180;BME280;3631;42.152;24.756;2023-02-14T00:49:08;100813.38;;;4.39;61.45
7180;BME280;3631;42.152;24.756;2023-02-14T00:51:34;100814.28;;;4.43;61.42
7180;BME280;3631;42.152;24.756;2023-02-14T00:54:01;100810.06;;;4.46;61.47
7180;BME280;3631;42.152;24.756;2023-02-14T00:56:28;100818.50;;;4.41;61.25
7180;BME280;3631;42.152;24.756;2023-02-14T00:58:55;100822.59;;;4.29;61.38
7180;BME280;3631;42.152;24.756;2023-02-14T01:01:24;100827.66;;;4.23;61.46
7180;BME280;3631;42.152;24.756;2023-02-14T01:03:51;100831.19;;;4.28;61.81
7180;BME280;3631;42.152;24.756;2023-02-14T01:06:17;100822.41;;;4.19;62.07
7180;BME280;3631;42.152;24.756;2023-02-14T01:08:44;100823.94;;;4.06;62.06
7180;BME280;3631;42.152;24.756;2023-02-14T01:11:13;100820.47;;;4.04;62.17
7180;BME280;3631;42.152;24.756;2023-02-14T01:13:41;100809.41;;;4.10;62.24
7180;BME280;3631;42.152;24.756;2023-02-14T01:16:11;100816.22;;;4.06;62.18
7180;BME280;3631;42.152;24.756;2023-02-14T01:18:40;100811.81;;;4.00;62.63
7180;BME280;3631;42.152;24.756;2023-02-14T01:21:14;100795.53;;;4.00;62.72
7180;BME280;3631;42.152;24.756;2023-02-14T01:23:42;100795.53;;;4.00;62.58
7180;BME280;3631;42.152;24.756;2023-02-14T01:26:09;100788.91;;;4.11;62.58
7180;BME280;3631;42.152;24.756;2023-02-14T01:28:37;100788.78;;;4.07;61.75
7180;BME280;3631;42.152;24.756;2023-02-14T01:31:06;100792.09;;;3.99;61.97
7180;BME280;3631;42.152;24.756;2023-02-14T01:33:33;100793.81;;;3.99;62.19
7180;BME280;3631;42.152;24.756;2023-02-14T01:36:01;100784.38;;;3.98;61.87
7180;BME280;3631;42.152;24.756;2023-02-14T01:38:28;100795.44;;;3.94;62.29
7180;BME280;3631;42.152;24.756;2023-02-14T01:40:55;100793.66;;;3.90;61.97
7180;BME280;3631;42.152;24.756;2023-02-14T01:43:22;100801.66;;;4.05;61.72
7180;BME280;3631;42.152;24.756;2023-02-14T01:45:49;100788.88;;;4.10;61.47
7180;BME280;3631;42.152;24.756;2023-02-14T01:48:18;100761.94;;;3.88;61.71
7180;BME280;3631;42.152;24.756;2023-02-14T01:50:48;100786.19;;;4.04;61.68
7180;BME280;3631;42.152;24.756;2023-02-14T01:53:20;100798.00;;;3.94;62.22
7180;BME280;3631;42.152;24.756;2023-02-14T01:55:53;100790.53;;;4.08;61.63
7180;BME280;3631;42.152;24.756;2023-02-14T01:58:26;100785.31;;;4.03;62.20
7180;BME280;3631;42.152;24.756;2023-02-14T02:00:55;100780.06;;;3.97;62.13
7180;BME280;3631;42.152;24.756;2023-02-14T02:03:28;100760.41;;;3.99;61.63
7180;BME280;3631;42.152;24.756;2023-02-14T02:06:02;100767.41;;;4.06;61.62
7180;BME280;3631;42.152;24.756;2023-02-14T02:08:34;100769.25;;;4.15;61.51
7180;BME280;3631;42.152;24.756;2023-02-14T02:11:03;100758.06;;;4.11;61.40
7180;BME280;3631;42.152;24.756;2023-02-14T02:13:30;100750.41;;;4.14;61.14
7180;BME280;3631;42.152;24.756;2023-02-14T02:16:06;100744.47;;;4.18;61.40
7180;BME280;3631;42.152;24.756;2023-02-14T02:18:48;100755.56;;;4.14;61.97
7180;BME280;3631;42.152;24.756;2023-02-14T02:21:36;100746.16;;;4.18;61.35
7180;BME280;3631;42.152;24.756;2023-02-14T02:24:20;100753.22;;;4.28;60.77
7180;BME280;3631;42.152;24.756;2023-02-14T02:36:26;100737.22;;;4.46;59.49
7180;BME280;3631;42.152;24.756;2023-02-14T02:39:13;100727.72;;;4.42;59.37
7180;BME280;3631;42.152;24.756;2023-02-14T02:41:49;100747.53;;;4.49;59.41
7180;BME280;3631;42.152;24.756;2023-02-14T02:44:20;100742.28;;;4.43;59.55
7180;BME280;3631;42.152;24.756;2023-02-14T02:46:55;100750.84;;;4.40;59.12
7180;BME280;3631;42.152;24.756;2023-02-14T02:49:38;100745.69;;;4.42;59.16
7180;BME280;3631;42.152;24.756;2023-02-14T02:52:33;100751.75;;;4.45;59.36
7180;BME280;3631;42.152;24.756;2023-02-14T02:55:25;100744.84;;;4.41;59.55
7180;BME280;3631;42.152;24.756;2023-02-14T02:57:54;100737.13;;;4.41;59.00
7180;BME280;3631;42.152;24.756;2023-02-14T03:00:22;100743.22;;;4.46;59.22
7180;BME280;3631;42.152;24.756;2023-02-14T03:02:52;100731.34;;;4.54;58.95
7180;BME280;3631;42.152;24.756;2023-02-14T03:05:38;100732.19;;;4.55;59.08
7180;BME280;3631;42.152;24.756;2023-02-14T03:08:07;100730.47;;;4.54;59.33
7180;BME280;3631;42.152;24.756;2023-02-14T03:10:37;100718.44;;;4.50;60.72
7180;BME280;3631;42.152;24.756;2023-02-14T03:16:40;100723.59;;;4.53;59.78
7180;BME280;3631;42.152;24.756;2023-02-14T03:22:25;100711.63;;;4.55;59.40
7180;BME280;3631;42.152;24.756;2023-02-14T03:25:05;100706.50;;;4.55;59.34
7180;BME280;3631;42.152;24.756;2023-02-14T03:27:37;100707.38;;;4.57;59.10
7180;BME280;3631;42.152;24.756;2023-02-14T03:30:10;100705.56;;;4.50;59.42
7180;BME280;3631;42.152;24.756;2023-02-14T03:32:40;100680.56;;;4.38;58.96
7180;BME280;3631;42.152;24.756;2023-02-14T03:35:14;100698.63;;;4.44;58.80
7180;BME280;3631;42.152;24.756;2023-02-14T03:37:50;100672.66;;;4.26;59.07
7180;BME280;3631;42.152;24.756;2023-02-14T03:40:23;100692.50;;;4.36;59.12
7180;BME280;3631;42.152;24.756;2023-02-14T03:42:54;100696.66;;;4.29;59.10
7180;BME280;3631;42.152;24.756;2023-02-14T03:45:27;100712.06;;;4.26;59.67
7180;BME280;3631;42.152;24.756;2023-02-14T03:47:59;100702.75;;;4.34;59.66
7180;BME280;3631;42.152;24.756;2023-02-14T03:50:28;100697.56;;;4.31;59.82
7180;BME280;3631;42.152;24.756;2023-02-14T03:52:57;100700.91;;;4.24;59.94
7180;BME280;3631;42.152;24.756;2023-02-14T03:55:46;100706.09;;;4.27;59.67
7180;BME280;3631;42.152;24.756;2023-02-14T03:58:18;100706.94;;;4.29;59.74
7180;BME280;3631;42.152;24.756;2023-02-14T04:00:49;100719.91;;;4.35;59.59
7180;BME280;3631;42.152;24.756;2023-02-14T04:03:19;100722.47;;;4.34;59.67
7180;BME280;3631;42.152;24.756;2023-02-14T04:05:48;100718.78;;;4.20;59.82
7180;BME280;3631;42.152;24.756;2023-02-14T04:08:20;100710.34;;;4.25;59.84
7180;BME280;3631;42.152;24.756;2023-02-14T04:10:48;100705.16;;;4.24;59.70
7180;BME280;3631;42.152;24.756;2023-02-14T04:13:16;100698.31;;;4.24;59.61
7180;BME280;3631;42.152;24.756;2023-02-14T04:15:43;100676.81;;;4.19;60.06
7180;BME280;3631;42.152;24.756;2023-02-14T04:18:10;100692.41;;;4.28;59.70
7180;BME280;3631;42.152;24.756;2023-02-14T04:20:54;100683.88;;;4.32;59.05
7180;BME280;3631;42.152;24.756;2023-02-14T04:23:21;100676.13;;;4.28;59.41
7180;BME280;3631;42.152;24.756;2023-02-14T04:25:49;100677.81;;;4.27;59.43
7180;BME280;3631;42.152;24.756;2023-02-14T04:28:16;100673.53;;;4.26;59.63
7180;BME280;3631;42.152;24.756;2023-02-14T04:30:43;100665.81;;;4.26;59.99
7180;BME280;3631;42.152;24.756;2023-02-14T04:33:10;100664.06;;;4.25;59.72
7180;BME280;3631;42.152;24.756;2023-02-14T04:35:37;100668.41;;;4.28;59.48
7180;BME280;3631;42.152;24.756;2023-02-14T04:38:04;100660.63;;;4.25;59.52
7180;BME280;3631;42.152;24.756;2023-02-14T04:40:31;100664.06;;;4.25;59.18
7180;BME280;3631;42.152;24.756;2023-02-14T04:43:00;100650.28;;;4.20;59.49
7180;BME280;3631;42.152;24.756;2023-02-14T04:45:29;100650.38;;;4.25;59.27
7180;BME280;3631;42.152;24.756;2023-02-14T04:47:55;100654.72;;;4.30;59.05
7180;BME280;3631;42.152;24.756;2023-02-14T04:50:22;100634.91;;;4.23;59.58
7180;BME280;3631;42.152;24.756;2023-02-14T04:52:50;100645.22;;;4.25;59.46
7180;BME280;3631;42.152;24.756;2023-02-14T04:55:17;100643.53;;;4.25;59.01
7180;BME280;3631;42.152;24.756;2023-02-14T04:57:44;100639.97;;;4.17;59.23
7180;BME280;3631;42.152;24.756;2023-02-14T05:00:14;100640.94;;;4.25;58.76
7180;BME280;3631;42.152;24.756;2023-02-14T05:02:41;100636.53;;;4.17;59.51
7180;BME280;3631;42.152;24.756;2023-02-14T05:05:07;100635.78;;;4.24;60.59
7180;BME280;3631;42.152;24.756;2023-02-14T05:07:34;100630.72;;;4.28;59.00
7180;BME280;3631;42.152;24.756;2023-02-14T05:10:02;100617.00;;;4.28;59.46
7180;BME280;3631;42.152;24.756;2023-02-14T05:12:29;100612.72;;;4.30;58.73
7180;BME280;3631;42.152;24.756;2023-02-14T05:14:56;100612.75;;;4.31;58.67
7180;BME280;3631;42.152;24.756;2023-02-14T05:17:24;100615.44;;;4.37;60.11
7180;BME280;3631;42.152;24.756;2023-02-14T05:19:51;100626.47;;;4.32;59.32
7180;BME280;3631;42.152;24.756;2023-02-14T05:22:18;100625.72;;;4.37;59.51
7180;BME280;3631;42.152;24.756;2023-02-14T05:24:44;100624.78;;;4.34;59.54
7180;BME280;3631;42.152;24.756;2023-02-14T05:27:11;100634.16;;;4.30;59.47
7180;BME280;3631;42.152;24.756;2023-02-14T05:29:38;100625.59;;;4.28;59.43
7180;BME280;3631;42.152;24.756;2023-02-14T05:32:05;100640.09;;;4.26;59.61
7180;BME280;3631;42.152;24.756;2023-02-14T05:34:34;100638.47;;;4.33;61.67
7180;BME280;3631;42.152;24.756;2023-02-14T05:37:01;100629.16;;;4.40;60.71
7180;BME280;3631;42.152;24.756;2023-02-14T05:39:28;100639.59;;;4.52;60.67
7180;BME280;3631;42.152;24.756;2023-02-14T05:41:55;100638.03;;;4.63;59.40
7180;BME280;3631;42.152;24.756;2023-02-14T05:44:22;100634.75;;;4.73;58.83
7180;BME280;3631;42.152;24.756;2023-02-14T05:46:49;100635.59;;;4.72;58.64
7180;BME280;3631;42.152;24.756;2023-02-14T05:49:16;100636.59;;;4.83;58.56
7180;BME280;3631;42.152;24.756;2023-02-14T05:51:44;100626.44;;;4.94;58.13
7180;BME280;3631;42.152;24.756;2023-02-14T05:54:11;100624.75;;;4.99;57.70
7180;BME280;3631;42.152;24.756;2023-02-14T05:56:38;100613.63;;;5.00;58.01
7180;BME280;3631;42.152;24.756;2023-02-14T05:59:04;100606.00;;;5.10;57.58
7180;BME280;3631;42.152;24.756;2023-02-14T06:01:31;100602.72;;;5.24;57.32
7180;BME280;3631;42.152;24.756;2023-02-14T06:03:58;100610.50;;;5.31;56.75
7180;BME280;3631;42.152;24.756;2023-02-14T06:06:25;100615.72;;;5.36;56.39
7180;BME280;3631;42.152;24.756;2023-02-14T06:08:53;100613.28;;;5.48;56.31
7180;BME280;3631;42.152;24.756;2023-02-14T06:11:20;100620.44;;;5.82;55.09
7180;BME280;3631;42.152;24.756;2023-02-14T06:13:47;100621.13;;;7.03;53.29
7180;BME280;3631;42.152;24.756;2023-02-14T06:16:14;100631.28;;;9.20;48.62
7180;BME280;3631;42.152;24.756;2023-02-14T06:18:41;100632.13;;;11.10;43.36
7180;BME280;3631;42.152;24.756;2023-02-14T06:21:08;100631.75;;;12.90;39.94
7180;BME280;3631;42.152;24.756;2023-02-14T06:23:35;100632.84;;;13.95;37.31
7180;BME280;3631;42.152;24.756;2023-02-14T06:26:03;100633.88;;;15.18;35.58
7180;BME280;3631;42.152;24.756;2023-02-14T06:28:30;100626.78;;;16.04;33.79
7180;BME280;3631;42.152;24.756;2023-02-14T06:30:57;100627.75;;;17.00;32.11
7180;BME280;3631;42.152;24.756;2023-02-14T06:33:24;100634.00;;;17.65;30.85
7180;BME280;3631;42.152;24.756;2023-02-14T06:35:52;100635.09;;;18.23;29.98
7180;BME280;3631;42.152;24.756;2023-02-14T06:38:19;100630.69;;;19.22;29.06
7180;BME280;3631;42.152;24.756;2023-02-14T06:40:46;100636.44;;;19.30;28.03
7180;BME280;3631;42.152;24.756;2023-02-14T06:43:14;100644.44;;;17.88;29.31
7180;BME280;3631;42.152;24.756;2023-02-14T06:45:41;100629.63;;;16.24;31.27
7180;BME280;3631;42.152;24.756;2023-02-14T06:48:08;100641.28;;;15.02;32.87
7180;BME280;3631;42.152;24.756;2023-02-14T06:50:35;100642.28;;;13.65;34.93
7180;BME280;3631;42.152;24.756;2023-02-14T06:53:02;100637.81;;;12.46;37.10
7180;BME280;3631;42.152;24.756;2023-02-14T06:55:29;100629.09;;;11.42;39.19
7180;BME280;3631;42.152;24.756;2023-02-14T06:57:56;100623.88;;;10.78;40.88
7180;BME280;3631;42.152;24.756;2023-02-14T07:00:24;100632.19;;;10.32;41.30
7180;BME280;3631;42.152;24.756;2023-02-14T07:02:51;100623.03;;;9.92;43.06
7180;BME280;3631;42.152;24.756;2023-02-14T07:05:18;100623.88;;;9.92;43.30
7180;BME280;3631;42.152;24.756;2023-02-14T07:07:45;100623.13;;;9.81;43.17
7180;BME280;3631;42.152;24.756;2023-02-14T07:10:12;100622.19;;;9.88;43.13
7180;BME280;3631;42.152;24.756;2023-02-14T07:12:39;100613.66;;;9.74;43.28
7180;BME280;3631;42.152;24.756;2023-02-14T07:15:07;100615.72;;;9.23;44.66
7180;BME280;3631;42.152;24.756;2023-02-14T07:17:36;100607.13;;;9.15;45.58
7180;BME280;3631;42.152;24.756;2023-02-14T07:20:04;100625.31;;;9.06;45.52
7180;BME280;3631;42.152;24.756;2023-02-14T07:22:32;100618.41;;;9.03;45.84
7180;BME280;3631;42.152;24.756;2023-02-14T07:24:59;100611.44;;;9.21;46.29
7180;BME280;3631;42.152;24.756;2023-02-14T07:27:26;100613.16;;;9.22;45.42
7180;BME280;3631;42.152;24.756;2023-02-14T07:29:53;100614.88;;;9.24;45.99
7180;BME280;3631;42.152;24.756;2023-02-14T07:32:19;100608.78;;;9.28;46.30
7180;BME280;3631;42.152;24.756;2023-02-14T07:34:49;100612.22;;;9.35;45.86
7180;BME280;3631;42.152;24.756;2023-02-14T07:37:16;100615.63;;;9.37;46.07
7180;BME280;3631;42.152;24.756;2023-02-14T07:39:43;100600.94;;;9.42;46.08
7180;BME280;3631;42.152;24.756;2023-02-14T07:42:11;100605.34;;;9.26;46.46
7180;BME280;3631;42.152;24.756;2023-02-14T07:44:38;100589.84;;;9.17;46.91
7180;BME280;3631;42.152;24.756;2023-02-14T07:47:05;100595.88;;;9.24;47.15
7180;BME280;3631;42.152;24.756;2023-02-14T07:49:32;100600.16;;;9.28;47.18
7180;BME280;3631;42.152;24.756;2023-02-14T07:52:01;100592.41;;;9.25;46.96
7180;BME280;3631;42.152;24.756;2023-02-14T07:54:28;100602.66;;;9.38;47.09
7180;BME280;3631;42.152;24.756;2023-02-14T07:56:55;100601.78;;;9.42;47.05
7180;BME280;3631;42.152;24.756;2023-02-14T07:59:22;100587.13;;;9.40;46.61
7180;BME280;3631;42.152;24.756;2023-02-14T08:01:49;100582.81;;;9.39;46.91
7180;BME280;3631;42.152;24.756;2023-02-14T08:04:16;100592.28;;;9.41;46.78
7180;BME280;3631;42.152;24.756;2023-02-14T08:06:43;100589.63;;;9.49;46.65
7180;BME280;3631;42.152;24.756;2023-02-14T08:09:11;100592.31;;;9.37;47.20
7180;BME280;3631;42.152;24.756;2023-02-14T08:11:49;100596.81;;;9.09;47.95
7180;BME280;3631;42.152;24.756;2023-02-14T08:14:33;100604.53;;;9.17;47.93
7180;BME280;3631;42.152;24.756;2023-02-14T08:17:00;100607.16;;;9.10;48.05
7180;BME280;3631;42.152;24.756;2023-02-14T08:19:27;100608.91;;;9.04;48.50
7180;BME280;3631;42.152;24.756;2023-02-14T08:21:54;100590.84;;;8.92;48.08
7180;BME280;3631;42.152;24.756;2023-02-14T08:24:23;100608.94;;;9.02;48.82
7180;BME280;3631;42.152;24.756;2023-02-14T08:26:50;100617.59;;;9.01;49.02
7180;BME280;3631;42.152;24.756;2023-02-14T08:29:17;100617.53;;;9.14;48.54
7180;BME280;3631;42.152;24.756;2023-02-14T08:31:44;100592.56;;;9.00;48.39
7180;BME280;3631;42.152;24.756;2023-02-14T08:34:12;100627.94;;;8.97;48.81
7180;BME280;3631;42.152;24.756;2023-02-14T08:36:39;100621.91;;;8.95;49.01
7180;BME280;3631;42.152;24.756;2023-02-14T08:39:06;100622.75;;;9.01;49.36
7180;BME280;3631;42.152;24.756;2023-02-14T08:41:35;100624.50;;;9.01;49.21
7180;BME280;3631;42.152;24.756;2023-02-14T08:44:02;100619.25;;;9.10;48.83
7180;BME280;3631;42.152;24.756;2023-02-14T08:46:29;100623.56;;;9.14;48.81
7180;BME280;3631;42.152;24.756;2023-02-14T08:48:56;100618.34;;;9.19;48.85
7180;BME280;3631;42.152;24.756;2023-02-14T08:51:23;100620.00;;;9.32;49.30
7180;BME280;3631;42.152;24.756;2023-02-14T08:53:50;100619.94;;;9.39;49.34
7180;BME280;3631;42.152;24.756;2023-02-14T08:56:17;100616.47;;;9.45;49.08
7180;BME280;3631;42.152;24.756;2023-02-14T08:58:50;100606.06;;;9.48;48.19
7180;BME280;3631;42.152;24.756;2023-02-14T09:01:17;100601.78;;;9.45;48.25
7180;BME280;3631;42.152;24.756;2023-02-14T09:03:44;100599.97;;;9.54;48.00
7180;BME280;3631;42.152;24.756;2023-02-14T09:06:12;100591.22;;;9.70;48.09
7180;BME280;3631;42.152;24.756;2023-02-14T09:08:42;100588.59;;;9.71;47.93
7180;BME280;3631;42.152;24.756;2023-02-14T09:11:11;100577.38;;;9.71;48.34
7180;BME280;3631;42.152;24.756;2023-02-14T09:13:38;100562.75;;;9.61;47.76
7180;BME280;3631;42.152;24.756;2023-02-14T09:16:08;100584.25;;;9.76;48.32
7180;BME280;3631;42.152;24.756;2023-02-14T09:18:35;100573.88;;;9.78;47.90
7180;BME280;3631;42.152;24.756;2023-02-14T09:21:06;100576.53;;;9.70;48.22
7180;BME280;3631;42.152;24.756;2023-02-14T09:23:33;100570.50;;;9.70;47.69
7180;BME280;3631;42.152;24.756;2023-02-14T09:26:00;100566.94;;;9.80;47.55
7180;BME280;3631;42.152;24.756;2023-02-14T09:28:28;100567.75;;;9.82;47.54
7180;BME280;3631;42.152;24.756;2023-02-14T09:30:55;100564.25;;;9.91;47.78
7180;BME280;3631;42.152;24.756;2023-02-14T09:33:26;100559.88;;;9.94;47.04
7180;BME280;3631;42.152;24.756;2023-02-14T09:35:53;100558.13;;;9.96;46.80
7180;BME280;3631;42.152;24.756;2023-02-14T09:38:38;100554.66;;;9.97;47.88
7180;BME280;3631;42.152;24.756;2023-02-14T09:41:06;100546.03;;;9.95;47.31
7180;BME280;3631;42.152;24.756;2023-02-14T09:43:37;100556.41;;;9.94;47.74
7180;BME280;3631;42.152;24.756;2023-02-14T09:46:13;100546.00;;;9.98;48.03
7180;BME280;3631;42.152;24.756;2023-02-14T09:48:45;100545.91;;;10.07;47.81
7180;BME280;3631;42.152;24.756;2023-02-14T09:51:14;100547.72;;;10.02;47.97
7180;BME280;3631;42.152;24.756;2023-02-14T09:53:44;100539.00;;;10.08;46.97
7180;BME280;3631;42.152;24.756;2023-02-14T09:56:18;100535.59;;;10.01;46.96
7180;BME280;3631;42.152;24.756;2023-02-14T09:58:51;100532.06;;;10.07;46.84
7180;BME280;3631;42.152;24.756;2023-02-14T10:01:23;100529.38;;;10.16;46.76
7180;BME280;3631;42.152;24.756;2023-02-14T10:04:15;100520.72;;;10.23;46.96
7180;BME280;3631;42.152;24.756;2023-02-14T10:06:52;100525.03;;;10.24;46.52
7180;BME280;3631;42.152;24.756;2023-02-14T10:09:35;100524.91;;;10.33;46.45
7180;BME280;3631;42.152;24.756;2023-02-14T10:12:05;100512.78;;;10.34;45.64
7180;BME280;3631;42.152;24.756;2023-02-14T10:14:36;100510.31;;;10.25;46.17
7180;BME280;3631;42.152;24.756;2023-02-14T10:17:08;100518.91;;;10.28;46.17
7180;BME280;3631;42.152;24.756;2023-02-14T10:19:40;100517.16;;;10.29;45.78
7180;BME280;3631;42.152;24.756;2023-02-14T10:22:12;100510.31;;;10.26;44.78
7180;BME280;3631;42.152;24.756;2023-02-14T10:24:43;100518.84;;;10.33;44.97
7180;BME280;3631;42.152;24.756;2023-02-14T10:27:16;100510.31;;;10.25;45.77
7180;BME280;3631;42.152;24.756;2023-02-14T10:29:49;100495.59;;;10.27;45.65
7180;BME280;3631;42.152;24.756;2023-02-14T10:32:20;100510.22;;;10.32;46.08
7180;BME280;3631;42.152;24.756;2023-02-14T10:34:55;100500.56;;;10.43;46.43
7180;BME280;3631;42.152;24.756;2023-02-14T10:37:35;100496.06;;;10.56;45.21
7180;BME280;3631;42.152;24.756;2023-02-14T10:40:34;100488.16;;;10.65;51.94
7180;BME280;3631;42.152;24.756;2023-02-14T10:43:14;100484.66;;;10.68;45.78
7180;BME280;3631;42.152;24.756;2023-02-14T10:45:49;100482.91;;;10.71;44.92
7180;BME280;3631;42.152;24.756;2023-02-14T10:48:26;100482.09;;;10.65;45.07
7180;BME280;3631;42.152;24.756;2023-02-14T10:50:59;100478.69;;;10.61;45.13
7180;BME280;3631;42.152;24.756;2023-02-14T10:53:34;100478.63;;;10.67;44.80
7180;BME280;3631;42.152;24.756;2023-02-14T10:56:08;100458.81;;;10.60;45.40
7180;BME280;3631;42.152;24.756;2023-02-14T10:58:40;100475.91;;;10.73;44.76
7180;BME280;3631;42.152;24.756;2023-02-14T11:01:11;100462.19;;;10.65;45.31
7180;BME280;3631;42.152;24.756;2023-02-14T11:03:50;100476.88;;;10.68;45.89
7180;BME280;3631;42.152;24.756;2023-02-14T11:06:19;100454.38;;;10.68;45.37
7180;BME280;3631;42.152;24.756;2023-02-14T11:08:46;100448.34;;;10.66;45.29
7180;BME280;3631;42.152;24.756;2023-02-14T11:11:18;100456.22;;;10.60;45.52
7180;BME280;3631;42.152;24.756;2023-02-14T11:13:46;100445.06;;;10.52;45.83
7180;BME280;3631;42.152;24.756;2023-02-14T11:16:22;100439.97;;;10.46;46.10
7180;BME280;3631;42.152;24.756;2023-02-14T11:19:07;100438.09;;;10.57;45.87
7180;BME280;3631;42.152;24.756;2023-02-14T11:21:38;100451.94;;;10.56;45.50
7180;BME280;3631;42.152;24.756;2023-02-14T11:24:16;100436.44;;;10.50;45.12
7180;BME280;3631;42.152;24.756;2023-02-14T11:26:45;100441.72;;;10.45;45.54
7180;BME280;3631;42.152;24.756;2023-02-14T11:29:15;100433.84;;;10.50;45.68
7180;BME280;3631;42.152;24.756;2023-02-14T11:31:44;100433.94;;;10.44;46.40
7180;BME280;3631;42.152;24.756;2023-02-14T11:34:23;100429.50;;;10.50;47.50
7180;BME280;3631;42.152;24.756;2023-02-14T11:36:55;100438.22;;;10.48;47.41
7180;BME280;3631;42.152;24.756;2023-02-14T11:39:27;100427.78;;;10.51;47.29
7180;BME280;3631;42.152;24.756;2023-02-14T11:41:57;100426.84;;;10.55;46.71
7180;BME280;3631;42.152;24.756;2023-02-14T11:44:26;100404.38;;;10.52;46.41
7180;BME280;3631;42.152;24.756;2023-02-14T11:46:55;100426.69;;;10.67;46.22
7180;BME280;3631;42.152;24.756;2023-02-14T11:49:28;100424.97;;;10.66;46.45
7180;BME280;3631;42.152;24.756;2023-02-14T11:51:58;100416.34;;;10.64;46.86
7180;BME280;3631;42.152;24.756;2023-02-14T11:54:33;100412.88;;;10.64;47.15
7180;BME280;3631;42.152;24.756;2023-02-14T11:57:03;100406.84;;;10.63;47.86
7180;BME280;3631;42.152;24.756;2023-02-14T11:59:35;100414.56;;;10.68;47.93
7180;BME280;3631;42.152;24.756;2023-02-14T12:02:20;100404.31;;;10.60;46.95
7180;BME280;3631;42.152;24.756;2023-02-14T12:04:51;100398.28;;;10.58;47.33
7180;BME280;3631;42.152;24.756;2023-02-14T12:07:25;100399.19;;;10.54;47.10
7180;BME280;3631;42.152;24.756;2023-02-14T12:10:14;100394.84;;;10.56;47.20
7180;BME280;3631;42.152;24.756;2023-02-14T12:12:51;100400.19;;;10.44;46.88
7180;BME280;3631;42.152;24.756;2023-02-14T12:15:28;100402.81;;;10.42;46.85
7180;BME280;3631;42.152;24.756;2023-02-14T12:18:18;100398.47;;;10.43;47.63
7180;BME280;3631;42.152;24.756;2023-02-14T12:20:52;100371.78;;;10.36;47.27
7180;BME280;3631;42.152;24.756;2023-02-14T12:23:25;100388.94;;;10.45;46.91
7180;BME280;3631;42.152;24.756;2023-02-14T12:26:00;100393.16;;;10.50;46.60
7180;BME280;3631;42.152;24.756;2023-02-14T12:28:32;100395.00;;;10.44;46.60
7180;BME280;3631;42.152;24.756;2023-02-14T12:31:08;100395.91;;;10.41;46.67
7180;BME280;3631;42.152;24.756;2023-02-14T12:33:37;100394.25;;;10.37;46.71
7180;BME280;3631;42.152;24.756;2023-02-14T12:36:09;100391.69;;;10.33;46.78
7180;BME280;3631;42.152;24.756;2023-02-14T12:38:49;100383.81;;;10.40;47.08
7180;BME280;3631;42.152;24.756;2023-02-14T12:41:32;100381.28;;;10.37;47.39
7180;BME280;3631;42.152;24.756;2023-02-14T12:44:05;100391.56;;;10.42;47.24
7180;BME280;3631;42.152;24.756;2023-02-14T12:47:00;100382.19;;;10.33;47.09
7180;BME280;3631;42.152;24.756;2023-02-14T12:52:59;100384.09;;;10.21;47.87
7180;BME280;3631;42.152;24.756;2023-02-14T12:55:43;100378.91;;;10.17;48.04
7180;BME280;3631;42.152;24.756;2023-02-14T12:58:20;100374.59;;;10.16;48.56
7180;BME280;3631;42.152;24.756;2023-02-14T13:00:56;100368.59;;;10.13;48.27
7180;BME280;3631;42.152;24.756;2023-02-14T13:03:44;100371.25;;;10.08;48.51
7180;BME280;3631;42.152;24.756;2023-02-14T13:06:18;100379.06;;;10.05;49.33
7180;BME280;3631;42.152;24.756;2023-02-14T13:09:16;100373.97;;;9.98;48.44
7180;BME280;3631;42.152;24.756;2023-02-14T13:11:54;100385.16;;;10.03;48.32
7180;BME280;3631;42.152;24.756;2023-02-14T13:14:35;100369.69;;;9.94;49.31
7180;BME280;3631;42.152;24.756;2023-02-14T13:17:14;100380.00;;;10.01;49.08
7180;BME280;3631;42.152;24.756;2023-02-14T13:19:50;100386.06;;;10.00;48.80
7180;BME280;3631;42.152;24.756;2023-02-14T13:22:22;100396.47;;;9.96;49.31
7180;BME280;3631;42.152;24.756;2023-02-14T13:24:52;100388.75;;;9.91;48.97
7180;BME280;3631;42.152;24.756;2023-02-14T13:27:27;100381.84;;;9.90;49.31
7180;BME280;3631;42.152;24.756;2023-02-14T13:29:58;100384.56;;;9.81;49.03
7180;BME280;3631;42.152;24.756;2023-02-14T13:32:30;100388.06;;;9.77;49.40
7180;BME280;3631;42.152;24.756;2023-02-14T13:34:58;100392.28;;;9.84;49.28
7180;BME280;3631;42.152;24.756;2023-02-14T13:37:27;100386.22;;;9.85;49.05
7180;BME280;3631;42.152;24.756;2023-02-14T13:39:55;100393.13;;;9.88;49.31
7180;BME280;3631;42.152;24.756;2023-02-14T13:42:50;100390.50;;;9.89;48.90
7180;BME280;3631;42.152;24.756;2023-02-14T13:45:52;100388.81;;;9.85;51.17
7180;BME280;3631;42.152;24.756;2023-02-14T13:48:20;100395.81;;;9.80;50.26